Time;durP1;ratioP1;P1;durP2;ratioP2;P2;SDS_P1;SDS_P2;PMS_P1;PMS_P2;Temp;Humidity;BMP_temperature;BMP_pressure;BME280_temperature;BME280_humidity;BME280_pressure;Samples;Min_cycle;Max_cycle;Signal;HPM_P1;HPM_P2
2023/07/23 00:03:16;;;;;;;;;;;20.80;43.50;;;19.95;44.96;100731.38;12254281;19;19923;-90
2023/07/23 00:07:17;;;;;;;;;;;20.80;43.70;;;19.99;44.96;100736.25;12250889;19;19907;-91
2023/07/23 00:11:19;;;;;;;;;;;20.80;43.50;;;20.00;44.93;100726.47;12249983;19;19918;-90
2023/07/23 00:15:21;;;;;;;;;;;20.80;43.50;;;19.93;45.18;100705.03;12251544;19;20364;-89
2023/07/23 00:19:23;;;;;;;;;;;20.80;43.30;;;19.78;45.16;100675.50;12253600;19;20222;-89
2023/07/23 00:23:24;;;;;;;;;;;20.90;43.20;;;19.94;44.98;100695.25;12254748;19;19919;-89
2023/07/23 00:27:26;;;;;;;;;;;20.90;43.30;;;20.05;44.77;100708.31;12252039;19;19927;-89
2023/07/23 00:31:27;;;;;;;;;;;20.90;43.20;;;20.02;45.08;100692.69;12251733;19;19929;-90
2023/07/23 00:35:29;;;;;;;;;;;20.90;43.30;;;19.94;44.88;100679.34;12250002;19;19923;-89
2023/07/23 00:39:30;;;;;;;;;;;20.90;43.20;;;20.05;45.00;100681.81;12251704;19;20329;-89
2023/07/23 00:43:32;;;;;;;;;;;21.00;43.20;;;20.05;44.91;100674.69;12252930;19;20301;-90
2023/07/23 00:47:34;;;;;;;;;;;21.00;43.20;;;20.02;45.01;100668.84;12249974;19;19923;-89
2023/07/23 00:51:36;;;;;;;;;;;21.00;43.20;;;20.02;44.74;100658.25;12248129;19;19943;-89
2023/07/23 00:55:38;;;;;;;;;;;21.00;43.10;;;20.01;45.06;100651.25;12249625;19;19935;-89
2023/07/23 00:59:40;;;;;;;;;;;21.00;43.10;;;20.02;45.11;100642.34;12250417;19;19926;-90
2023/07/23 01:03:42;;;;;;;;;;;21.10;43.10;;;20.13;45.12;100663.34;12250510;19;19986;-90
2023/07/23 01:07:44;;;;;;;;;;;21.10;43.20;;;19.98;45.27;100622.41;12248839;19;19922;-90
2023/07/23 01:11:46;;;;;;;;;;;21.10;43.20;;;20.13;44.99;100644.78;12247564;19;19934;-90
2023/07/23 01:15:47;;;;;;;;;;;21.10;43.20;;;20.18;44.97;100641.69;12248104;19;20246;-89
2023/07/23 01:20:06;;;;;;;;;;;21.10;43.10;;;20.09;45.15;100617.75;12242364;19;19919;-89
2023/07/23 01:24:07;;;;;;;;;;;21.10;43.10;;;20.18;45.29;100631.09;12248463;19;19917;-89
2023/07/23 01:28:09;;;;;;;;;;;21.10;43.30;;;19.91;45.06;100586.88;12236625;19;20269;-89
2023/07/23 01:32:10;;;;;;;;;;;21.10;43.10;;;20.18;45.12;100620.47;12239275;19;19930;-89
2023/07/23 01:36:14;;;;;;;;;;;21.10;43.20;;;20.19;45.04;100622.13;12246321;19;19931;-88
2023/07/23 01:40:15;;;;;;;;;;;21.10;43.10;;;20.22;45.02;100617.34;12251527;19;19926;-88
2023/07/23 01:44:17;;;;;;;;;;;21.20;43.20;;;20.17;44.93;100605.53;12261786;19;20249;-88
2023/07/23 01:48:20;;;;;;;;;;;21.20;43.20;;;20.25;44.91;100614.44;12258566;19;20300;-88
2023/07/23 01:52:22;;;;;;;;;;;21.20;43.20;;;20.22;45.24;100613.88;12260706;19;19982;-88
2023/07/23 01:56:24;;;;;;;;;;;21.20;43.20;;;20.25;45.19;100617.06;12259590;19;19970;-88
2023/07/23 02:00:26;;;;;;;;;;;21.20;43.20;;;20.20;45.14;100611.38;12262887;19;19982;-88
2023/07/23 02:04:28;;;;;;;;;;;21.20;43.30;;;20.00;45.04;100578.03;12261239;19;19922;-88
2023/07/23 02:08:30;;;;;;;;;;;21.20;43.30;;;20.27;45.19;100635.47;12262676;19;19915;-88
2023/07/23 02:12:33;;;;;;;;;;;21.20;43.40;;;20.14;44.96;100614.63;12259395;19;19955;-87
2023/07/23 02:16:34;;;;;;;;;;;21.20;43.50;;;20.12;45.14;100621.91;12259805;19;19926;-88
2023/07/23 02:20:36;;;;;;;;;;;21.20;43.50;;;20.19;45.46;100628.25;12262481;19;19939;-88
2023/07/23 02:24:38;;;;;;;;;;;21.20;43.70;;;20.18;45.21;100636.38;12261903;19;20514;-87
2023/07/23 02:28:42;;;;;;;;;;;21.20;43.70;;;20.28;45.01;100656.56;12263544;19;19922;-87
2023/07/23 02:32:43;;;;;;;;;;;21.20;43.80;;;20.01;45.11;100620.31;12258122;19;19915;-87
2023/07/23 02:36:46;;;;;;;;;;;21.20;43.80;;;20.17;45.41;100664.72;12259603;19;19907;-87
2023/07/23 02:40:48;;;;;;;;;;;21.20;43.90;;;20.27;45.28;100686.69;12264204;19;19998;-86
2023/07/23 02:44:50;;;;;;;;;;;21.20;44.00;;;20.21;45.43;100687.28;12261872;19;19923;-87
2023/07/23 02:48:51;;;;;;;;;;;21.10;43.90;;;20.25;45.23;100706.38;12261459;19;19939;-86
2023/07/23 02:52:53;;;;;;;;;;;21.10;43.90;;;20.20;45.37;100698.91;12265573;19;19903;-87
2023/07/23 02:56:54;;;;;;;;;;;21.10;43.90;;;20.04;45.31;100680.16;12260918;19;19907;-87
2023/07/23 03:00:56;;;;;;;;;;;21.10;43.80;;;20.08;45.21;100684.97;12261914;19;19919;-87
2023/07/23 03:04:57;;;;;;;;;;;21.00;43.90;;;20.04;45.50;100678.31;12258621;19;19929;-87
2023/07/23 03:08:59;;;;;;;;;;;21.00;44.00;;;20.09;45.71;100680.50;12256977;19;19927;-87
2023/07/23 03:13:01;;;;;;;;;;;21.00;44.10;;;19.77;45.47;100636.75;12259717;19;19914;-86
2023/07/23 03:17:02;;;;;;;;;;;21.00;44.20;;;19.84;45.45;100652.88;12251904;19;19940;-87
2023/07/23 03:21:04;;;;;;;;;;;21.00;44.30;;;19.92;45.51;100673.34;12252906;19;19918;-86
2023/07/23 03:25:06;;;;;;;;;;;20.90;44.30;;;19.97;45.61;100694.97;12252750;19;19907;-86
2023/07/23 03:29:08;;;;;;;;;;;20.80;44.40;;;19.73;45.75;100651.25;12253743;19;19949;-86
2023/07/23 03:33:09;;;;;;;;;;;20.80;44.60;;;19.90;45.80;100686.75;12256301;19;19919;-87
2023/07/23 03:37:11;;;;;;;;;;;20.80;44.40;;;19.74;45.23;100655.59;12253399;19;20314;-86
2023/07/23 03:41:13;;;;;;;;;;;20.70;44.70;;;19.53;45.53;100633.75;12257004;19;20463;-86
2023/07/23 03:45:15;;;;;;;;;;;20.70;44.70;;;19.71;45.54;100678.88;12255484;19;19995;-87
2023/07/23 03:49:16;;;;;;;;;;;20.60;44.70;;;19.83;45.59;100696.28;12255329;19;20317;-87
2023/07/23 03:53:18;;;;;;;;;;;20.60;44.80;;;19.81;45.78;100683.16;12256681;19;19918;-88
2023/07/23 03:57:19;;;;;;;;;;;20.70;45.00;;;19.75;45.92;100681.09;12252190;19;19962;-88
2023/07/23 04:01:22;;;;;;;;;;;20.70;45.00;;;19.71;46.00;100666.44;12254565;19;19918;-88
2023/07/23 04:05:23;;;;;;;;;;;20.60;44.90;;;19.74;45.86;100668.84;12249166;19;19930;-88
2023/07/23 04:09:24;;;;;;;;;;;20.60;44.90;;;19.69;45.97;100667.59;12252706;19;19919;-88
2023/07/23 04:13:26;;;;;;;;;;;20.60;44.90;;;19.69;45.76;100676.38;12252226;19;19914;-87
2023/07/23 04:17:28;;;;;;;;;;;20.60;45.10;;;19.66;45.77;100680.16;12252767;19;19948;-87
2023/07/23 04:21:30;;;;;;;;;;;20.50;45.10;;;19.56;46.16;100671.38;12253016;19;19918;-87
2023/07/23 04:25:31;;;;;;;;;;;20.50;45.20;;;19.59;46.13;100676.38;12254733;19;19980;-87
2023/07/23 04:29:33;;;;;;;;;;;20.50;45.40;;;19.62;46.21;100675.25;12254695;19;19919;-87
2023/07/23 04:33:35;;;;;;;;;;;20.50;45.30;;;19.70;46.03;100690.47;12253288;19;20504;-87
2023/07/23 04:37:37;;;;;;;;;;;20.60;45.40;;;19.76;46.23;100693.34;12248503;19;19921;-87
2023/07/23 04:41:39;;;;;;;;;;;20.60;45.40;;;19.76;46.18;100689.88;12252800;19;19922;-87
2023/07/23 04:45:41;;;;;;;;;;;20.60;45.30;;;19.80;46.11;100694.75;12250372;19;19926;-87
2023/07/23 04:49:43;;;;;;;;;;;20.70;45.30;;;19.80;46.12;100678.00;12251187;19;19914;-87
2023/07/23 04:53:44;;;;;;;;;;;20.70;45.30;;;19.79;46.44;100668.38;12250599;19;19906;-88
2023/07/23 04:57:46;;;;;;;;;;;20.70;45.20;;;19.84;46.39;100680.22;12247814;19;19914;-88
2023/07/23 05:01:47;;;;;;;;;;;20.80;45.30;;;19.63;46.17;100647.75;12251026;19;19919;-88
2023/07/23 05:05:49;;;;;;;;;;;20.80;45.40;;;19.80;46.19;100667.41;12248367;19;19946;-88
2023/07/23 05:09:50;;;;;;;;;;;20.80;45.30;;;19.81;46.50;100648.69;12249299;19;20538;-89
2023/07/23 05:13:52;;;;;;;;;;;20.80;45.50;;;19.84;46.44;100653.72;12248132;19;19915;-89
2023/07/23 05:17:54;;;;;;;;;;;20.80;45.60;;;19.96;46.52;100674.75;12247205;19;19927;-88
2023/07/23 05:21:56;;;;;;;;;;;20.80;45.50;;;19.88;46.45;100668.34;12261578;19;19910;-89
2023/07/23 05:25:58;;;;;;;;;;;20.90;45.50;;;19.99;46.34;100682.41;12255831;19;19922;-88
2023/07/23 05:30:00;;;;;;;;;;;20.90;45.40;;;19.99;46.44;100683.22;12261348;19;19911;-88
2023/07/23 05:34:01;;;;;;;;;;;20.90;45.70;;;19.78;46.58;100635.75;12258853;19;19939;-88
2023/07/23 05:38:03;;;;;;;;;;;21.00;45.70;;;19.81;46.58;100640.75;12254589;19;20237;-88
2023/07/23 05:42:05;;;;;;;;;;;21.00;46.20;;;20.06;46.45;100684.31;12257765;19;19919;-88
2023/07/23 05:46:06;;;;;;;;;;;20.90;45.50;;;20.04;46.28;100674.84;12254811;19;19919;-89
2023/07/23 05:50:08;;;;;;;;;;;21.00;45.50;;;20.01;46.64;100675.97;12257284;19;19932;-89
2023/07/23 05:54:09;;;;;;;;;;;21.00;45.50;;;20.04;46.87;100665.06;12257916;19;19919;-89
2023/07/23 05:58:11;;;;;;;;;;;21.10;45.50;;;20.10;46.75;100671.59;12252974;19;19942;-89
2023/07/23 06:02:12;;;;;;;;;;;21.10;45.60;;;20.15;46.66;100674.63;12252417;19;19919;-89
2023/07/23 06:06:14;;;;;;;;;;;21.10;45.60;;;20.24;46.76;100681.69;12254921;19;19974;-89
2023/07/23 06:10:15;;;;;;;;;;;21.10;45.50;;;20.28;46.58;100683.06;12255741;19;19943;-89
2023/07/23 06:14:17;;;;;;;;;;;21.20;45.60;;;20.23;46.98;100663.28;12255479;19;20628;-89
2023/07/23 06:18:18;;;;;;;;;;;21.20;45.60;;;20.36;46.69;100677.03;12252255;19;19915;-89
2023/07/23 06:22:20;;;;;;;;;;;21.30;46.00;;;20.39;46.88;100674.06;12258504;19;19980;-89
2023/07/23 06:26:21;;;;;;;;;;;21.30;46.20;;;20.46;46.82;100661.88;12251314;19;19915;-89
2023/07/23 06:30:23;;;;;;;;;;;21.40;45.80;;;20.57;46.97;100650.22;12255584;19;19929;-88
2023/07/23 06:34:25;;;;;;;;;;;21.50;45.80;;;20.69;47.13;100648.19;12256345;19;19939;-89
2023/07/23 06:38:26;;;;;;;;;;;21.60;45.80;;;20.75;47.14;100629.81;12253722;19;19943;-89
2023/07/23 06:42:28;;;;;;;;;;;21.80;45.70;;;20.80;46.80;100628.56;12255811;19;19965;-88
2023/07/23 06:46:29;;;;;;;;;;;22.00;45.80;;;21.13;46.86;100659.66;12255289;19;20219;-88
2023/07/23 06:50:31;;;;;;;;;;;22.10;45.70;;;21.23;46.95;100651.59;12256188;19;19918;-87
2023/07/23 06:54:36;;;;;;;;;;;22.20;45.50;;;21.26;46.87;100645.16;12257778;19;20325;-87
2023/07/23 06:58:37;;;;;;;;;;;22.30;45.50;;;21.27;47.24;100622.91;12257058;19;19915;-87
2023/07/23 07:02:39;;;;;;;;;;;22.40;45.50;;;21.29;46.75;100610.28;12255915;19;19923;-88
2023/07/23 07:06:40;;;;;;;;;;;22.50;45.40;;;21.58;47.20;100642.72;12253139;19;19923;-85
2023/07/23 07:10:42;;;;;;;;;;;22.60;45.40;;;21.53;47.27;100615.78;12256951;19;19915;-85
2023/07/23 07:14:43;;;;;;;;;;;22.70;45.30;;;21.73;47.03;100632.28;12258952;19;19923;-87
2023/07/23 07:18:45;;;;;;;;;;;22.80;45.20;;;21.80;47.16;100627.19;12254480;19;19949;-86
2023/07/23 07:22:47;;;;;;;;;;;23.00;45.10;;;21.84;47.15;100613.41;12258424;19;19926;-86
2023/07/23 07:26:48;;;;;;;;;;;23.00;44.90;;;22.13;47.21;100643.25;12252439;19;19967;-87
2023/07/23 07:30:50;;;;;;;;;;;23.20;45.00;;;22.25;47.26;100644.63;12260442;19;20288;-87
2023/07/23 07:34:52;;;;;;;;;;;23.30;45.20;;;22.08;46.94;100598.50;12256676;19;19938;-85
2023/07/23 07:38:53;;;;;;;;;;;23.40;45.00;;;22.47;46.83;100624.56;12248978;19;19927;-85
2023/07/23 07:43:02;;;;;;;;;;;23.40;44.90;;;22.63;47.08;100632.56;12242908;19;20260;-85
2023/07/23 07:47:08;;;;;;;;;;;23.70;45.10;;;22.36;47.04;100569.84;12247117;19;19950;-85
2023/07/23 07:51:16;;;;;;;;;;;23.80;45.10;;;22.99;47.03;100634.09;12231567;19;19927;-84
2023/07/23 07:55:17;;;;;;;;;;;24.00;45.00;;;23.05;46.82;100612.94;12246580;19;19919;-84
2023/07/23 07:59:19;;;;;;;;;;;24.20;44.90;;;23.32;46.69;100638.34;12251067;19;19936;-84
2023/07/23 08:03:26;;;;;;;;;;;24.40;44.70;;;23.07;47.01;100580.81;12245653;19;19922;-85
2023/07/23 08:07:28;;;;;;;;;;;24.50;44.60;;;23.53;47.02;100628.97;12245929;19;20328;-85
2023/07/23 08:11:31;;;;;;;;;;;24.60;44.50;;;23.46;46.83;100607.50;12245066;19;20310;-85
2023/07/23 08:15:33;;;;;;;;;;;24.70;44.00;;;23.57;46.80;100622.28;12250090;19;20338;-85
2023/07/23 08:19:35;;;;;;;;;;;24.80;44.30;;;23.65;46.75;100619.59;12244743;19;19927;-86
2023/07/23 08:23:37;;;;;;;;;;;24.80;44.60;;;23.76;46.89;100619.28;12249526;19;19998;-85
2023/07/23 08:27:40;;;;;;;;;;;24.90;44.20;;;23.86;46.72;100619.03;12244117;19;20381;-86
2023/07/23 08:31:42;;;;;;;;;;;24.90;44.10;;;23.92;46.67;100612.19;12241740;19;19922;-85
2023/07/23 08:35:44;;;;;;;;;;;25.00;43.80;;;23.97;46.51;100623.16;12237126;19;19911;-85
2023/07/23 08:39:45;;;;;;;;;;;25.10;43.30;;;23.98;46.66;100603.47;12245400;19;19942;-85
2023/07/23 08:43:52;;;;;;;;;;;25.10;43.90;;;24.06;46.57;100606.94;12242197;19;19994;-85
2023/07/23 08:48:10;;;;;;;;;;;25.10;43.60;;;24.08;46.49;100610.25;12240956;19;20306;-85
2023/07/23 08:52:12;;;;;;;;;;;25.10;43.70;;;24.13;46.33;100601.72;12246929;19;19918;-85
2023/07/23 08:56:14;;;;;;;;;;;25.20;43.60;;;24.09;46.10;100595.09;12254017;19;19939;-84
2023/07/23 09:00:16;;;;;;;;;;;25.20;43.40;;;24.10;46.24;100591.41;12255908;19;19911;-84
2023/07/23 09:04:17;;;;;;;;;;;25.20;43.20;;;24.00;46.44;100569.44;12258524;19;19923;-86
2023/07/23 09:08:20;;;;;;;;;;;25.20;42.60;;;24.29;46.34;100614.13;12250995;19;19926;-84
2023/07/23 09:12:21;;;;;;;;;;;25.30;43.20;;;24.23;45.95;100597.00;12252679;19;19911;-85
2023/07/23 09:16:23;;;;;;;;;;;25.30;42.90;;;24.35;46.41;100612.59;12252973;19;20329;-85
2023/07/23 09:20:25;;;;;;;;;;;25.30;42.70;;;24.25;46.03;100597.66;12256820;19;19919;-85
2023/07/23 09:24:33;;;;;;;;;;;25.30;43.00;;;24.36;46.11;100598.22;12252669;19;19938;-86
2023/07/23 09:28:34;;;;;;;;;;;25.40;42.90;;;24.42;46.27;100600.19;12259120;19;19918;-85
2023/07/23 09:32:36;;;;;;;;;;;25.40;42.30;;;24.45;45.97;100594.53;12254715;19;19948;-85
2023/07/23 09:36:37;;;;;;;;;;;25.40;42.20;;;24.49;45.73;100587.81;12254093;19;19914;-84
2023/07/23 09:40:41;;;;;;;;;;;25.50;42.30;;;24.46;45.97;100570.31;12257361;19;19950;-85
2023/07/23 09:44:42;;;;;;;;;;;25.50;43.00;;;24.62;45.91;100579.19;12256610;19;19943;-86
2023/07/23 09:48:50;;;;;;;;;;;25.50;42.80;;;24.77;45.77;100589.94;12257117;19;20573;-87
2023/07/23 09:52:51;;;;;;;;;;;25.60;43.00;;;24.71;45.53;100552.25;12250777;19;19947;-85
2023/07/23 09:56:53;;;;;;;;;;;25.70;42.30;;;24.87;45.55;100563.78;12239437;19;19927;-87
2023/07/23 10:00:56;;;;;;;;;;;25.90;42.30;;;24.99;45.99;100559.66;12254927;19;19982;-86
2023/07/23 10:04:58;;;;;;;;;;;26.00;41.90;;;24.94;45.58;100540.66;12248658;19;20253;-85
2023/07/23 10:09:02;;;;;;;;;;;26.10;41.90;;;25.17;45.50;100562.84;12253931;19;19923;-86
2023/07/23 10:13:03;;;;;;;;;;;26.10;40.80;;;25.07;45.56;100519.47;12249588;19;20350;-85
2023/07/23 10:17:06;;;;;;;;;;;26.20;41.40;;;25.37;45.34;100546.22;12248372;19;19945;-85
2023/07/23 10:21:08;;;;;;;;;;;26.30;41.10;;;25.39;45.00;100531.66;12252394;19;20337;-84
2023/07/23 10:25:25;;;;;;;;;;;26.40;41.60;;;25.50;45.38;100537.56;12252012;19;20257;-85
2023/07/23 10:29:26;;;;;;;;;;;26.50;42.00;;;25.53;45.21;100529.16;12248376;19;19931;-83
2023/07/23 10:33:28;;;;;;;;;;;26.50;41.80;;;25.62;44.92;100536.03;12246580;19;19943;-84
2023/07/23 10:37:30;;;;;;;;;;;26.60;40.30;;;25.66;44.84;100512.44;12240305;19;19930;-84
2023/07/23 10:41:53;;;;;;;;;;;26.60;40.90;;;25.88;45.03;100518.69;12241142;19;19923;-83
2023/07/23 10:46:05;;;;;;;;;;;26.70;40.60;;;26.03;44.87;100506.03;12245028;19;19921;-84
2023/07/23 10:50:11;;;;;;;;;;;26.90;39.60;;;26.12;44.44;100499.56;12251297;19;19923;-84
2023/07/23 10:54:13;;;;;;;;;;;27.00;40.30;;;26.27;44.66;100494.13;12248559;19;19926;-83
2023/07/23 10:58:18;;;;;;;;;;;27.10;40.70;;;26.32;44.71;100489.00;12246264;19;19915;-83
2023/07/23 11:02:25;;;;;;;;;;;27.20;40.60;;;26.48;44.47;100480.69;12250641;19;20261;-83
2023/07/23 11:06:32;;;;;;;;;;;27.40;41.30;;;26.65;44.57;100478.59;12243282;19;19936;-83
2023/07/23 11:11:00;;;;;;;;;;;27.50;41.40;;;26.83;44.28;100483.41;12249809;19;19918;-84
2023/07/23 11:15:13;;;;;;;;;;;27.70;38.50;;;26.94;44.20;100463.28;12244030;19;20299;-84
2023/07/23 11:19:16;;;;;;;;;;;27.80;39.80;;;27.02;44.49;100448.88;12249973;19;19919;-85
2023/07/23 11:23:20;;;;;;;;;;;27.90;38.30;;;27.06;43.85;100431.41;12246728;19;19925;-85
2023/07/23 11:27:21;;;;;;;;;;;28.10;40.50;;;26.86;43.98;100381.19;12245058;19;20396;-85
2023/07/23 11:31:23;;;;;;;;;;;28.20;41.10;;;27.38;44.02;100431.72;12246459;19;19958;-85
2023/07/23 11:35:24;;;;;;;;;;;28.30;39.30;;;27.46;43.66;100428.84;12249738;19;19940;-86
2023/07/23 11:39:25;;;;;;;;;;;28.50;37.90;;;27.62;43.76;100420.41;12253982;19;19911;-84
2023/07/23 11:43:27;;;;;;;;;;;28.60;39.50;;;27.58;43.63;100385.13;12253775;19;19922;-86
2023/07/23 11:47:29;;;;;;;;;;;28.70;40.40;;;27.78;43.78;100406.59;12249761;19;20326;-84
2023/07/23 11:51:32;;;;;;;;;;;28.80;39.50;;;27.95;43.40;100390.97;12250254;19;19939;-85
2023/07/23 11:55:33;;;;;;;;;;;28.90;39.80;;;27.99;43.37;100384.13;12250562;19;19923;-86
2023/07/23 11:59:38;;;;;;;;;;;29.00;39.90;;;28.07;43.31;100383.09;12251905;19;19914;-88
2023/07/23 12:03:42;;;;;;;;;;;29.10;39.10;;;28.20;42.85;100383.09;12253625;19;19932;-86
2023/07/23 12:07:44;;;;;;;;;;;29.20;39.00;;;28.23;43.52;100366.56;12248071;19;19923;-87
2023/07/23 12:11:46;;;;;;;;;;;29.30;40.60;;;28.34;43.08;100357.03;12248885;19;19978;-86
2023/07/23 12:15:54;;;;;;;;;;;29.40;40.50;;;28.58;43.31;100360.91;12243620;19;20223;-85
2023/07/23 12:19:55;;;;;;;;;;;29.50;40.20;;;28.70;43.18;100357.56;12251261;19;19926;-85
2023/07/23 12:24:10;;;;;;;;;;;29.60;38.20;;;28.81;43.00;100349.69;12248416;19;19929;-85
2023/07/23 12:28:12;;;;;;;;;;;29.70;39.70;;;28.91;42.94;100330.38;12234949;19;19937;-84
2023/07/23 12:32:14;;;;;;;;;;;29.90;35.90;;;28.97;42.57;100316.06;12240006;19;19915;-83
2023/07/23 12:36:15;;;;;;;;;;;29.90;38.80;;;29.10;42.73;100315.22;12244169;19;19922;-84
2023/07/23 12:40:18;;;;;;;;;;;30.00;39.90;;;29.24;42.18;100324.00;12243732;19;20261;-83
2023/07/23 12:44:19;;;;;;;;;;;30.20;37.20;;;29.26;42.40;100309.31;12241338;19;19919;-84
2023/07/23 12:48:21;;;;;;;;;;;30.30;38.80;;;29.28;42.25;100298.34;12242739;19;20636;-83
2023/07/23 12:52:23;;;;;;;;;;;30.30;38.90;;;29.33;42.16;100299.34;12240844;19;19922;-84
2023/07/23 12:56:24;;;;;;;;;;;30.40;38.70;;;29.46;41.89;100311.00;12241009;19;19911;-84
2023/07/23 13:00:25;;;;;;;;;;;30.40;39.30;;;29.42;41.99;100294.50;12243280;19;19922;-84
2023/07/23 13:04:27;;;;;;;;;;;30.50;38.90;;;29.51;42.13;100295.03;12242608;19;20143;-85
2023/07/23 13:08:28;;;;;;;;;;;30.50;37.00;;;29.54;41.79;100295.44;12241438;19;19925;-84
2023/07/23 13:12:30;;;;;;;;;;;30.50;37.80;;;29.56;41.57;100293.34;12238825;19;19998;-84
2023/07/23 13:16:31;;;;;;;;;;;30.50;38.40;;;29.59;41.68;100288.56;12240723;19;20328;-84
2023/07/23 13:20:32;;;;;;;;;;;30.40;36.50;;;29.64;41.33;100286.06;12242813;19;19922;-83
2023/07/23 13:24:34;;;;;;;;;;;30.50;37.20;;;29.56;41.20;100257.53;12244287;19;19935;-84
2023/07/23 13:28:35;;;;;;;;;;;30.50;36.20;;;29.56;41.32;100252.97;12244851;19;19919;-84
2023/07/23 13:32:37;;;;;;;;;;;30.50;38.10;;;29.80;41.50;100265.84;12234674;19;20665;-84
2023/07/23 13:36:38;;;;;;;;;;;30.70;37.90;;;29.83;40.90;100276.97;12240882;19;19914;-84
2023/07/23 13:40:40;;;;;;;;;;;30.70;38.40;;;29.85;41.06;100277.59;12256316;19;20307;-84
2023/07/23 13:44:42;;;;;;;;;;;30.80;38.10;;;29.86;40.74;100267.63;12256424;19;19979;-84
2023/07/23 13:48:43;;;;;;;;;;;30.80;32.70;;;29.88;40.69;100287.91;12253419;19;19917;-84
2023/07/23 13:52:48;;;;;;;;;;;30.80;36.30;;;29.88;40.46;100282.53;12249649;19;21406;-84
2023/07/23 13:56:50;;;;;;;;;;;30.80;37.40;;;29.81;40.60;100281.75;12253958;19;19915;-84
2023/07/23 14:00:52;;;;;;;;;;;30.80;37.60;;;29.65;40.24;100250.03;12255639;19;19927;-84
2023/07/23 14:04:53;;;;;;;;;;;30.80;36.70;;;29.76;40.78;100284.31;12254446;19;19933;-84
2023/07/23 14:08:55;;;;;;;;;;;30.70;37.10;;;29.76;40.49;100311.22;12253008;19;19938;-84
2023/07/23 14:12:57;;;;;;;;;;;30.70;35.00;;;29.71;40.27;100306.50;12253009;19;19919;-84
2023/07/23 14:16:58;;;;;;;;;;;30.60;36.00;;;29.65;39.99;100299.31;12252744;19;19984;-84
2023/07/23 14:21:00;;;;;;;;;;;30.50;31.50;;;29.50;39.66;100286.16;12253226;19;19915;-84
2023/07/23 14:25:02;;;;;;;;;;;30.50;34.00;;;29.52;39.71;100300.22;12249236;19;19918;-85
2023/07/23 14:29:03;;;;;;;;;;;30.40;36.00;;;29.50;39.92;100299.59;12251659;19;20242;-84
2023/07/23 14:33:05;;;;;;;;;;;30.30;35.40;;;29.44;39.85;100310.44;12248671;19;19978;-85
2023/07/23 14:37:08;;;;;;;;;;;30.30;35.80;;;29.41;39.62;100308.16;12248862;19;19915;-85
2023/07/23 14:41:09;;;;;;;;;;;30.20;35.60;;;29.31;39.79;100314.84;12253508;19;19918;-84
2023/07/23 14:45:12;;;;;;;;;;;30.20;36.30;;;29.31;39.46;100324.81;12253552;19;19919;-85
2023/07/23 14:49:13;;;;;;;;;;;30.10;34.70;;;29.31;39.29;100332.88;12249065;19;19923;-84
2023/07/23 14:53:15;;;;;;;;;;;30.10;33.70;;;29.09;39.15;100314.38;12245272;19;20272;-84
2023/07/23 14:57:17;;;;;;;;;;;30.10;33.80;;;29.04;38.94;100324.97;12244369;19;20185;-85
2023/07/23 15:01:18;;;;;;;;;;;29.90;34.20;;;29.03;38.78;100346.66;12250959;19;19919;-84
2023/07/23 15:05:20;;;;;;;;;;;29.80;34.10;;;28.95;38.93;100342.38;12241851;19;19922;-84
2023/07/23 15:09:22;;;;;;;;;;;29.80;34.90;;;28.85;38.95;100360.81;12248957;19;19919;-85
2023/07/23 15:13:24;;;;;;;;;;;29.70;34.50;;;28.79;38.60;100353.63;12251317;19;19947;-85
2023/07/23 15:17:26;;;;;;;;;;;29.60;33.00;;;28.67;38.54;100356.94;12246640;19;19942;-85
2023/07/23 15:21:27;;;;;;;;;;;29.50;35.00;;;28.65;38.73;100375.16;12247962;19;19923;-85
2023/07/23 15:25:29;;;;;;;;;;;29.40;33.40;;;28.58;38.37;100386.97;12245928;19;20612;-84
2023/07/23 15:29:35;;;;;;;;;;;29.30;35.40;;;28.52;38.52;100379.75;12249923;19;19915;-85
2023/07/23 15:33:36;;;;;;;;;;;29.20;34.90;;;28.46;38.34;100376.03;12246971;19;19922;-85
2023/07/23 15:37:41;;;;;;;;;;;29.20;35.30;;;28.28;38.44;100362.44;12244562;19;19919;-86
2023/07/23 15:41:44;;;;;;;;;;;29.10;35.80;;;28.43;38.22;100376.47;12250137;19;19915;-86
2023/07/23 15:45:45;;;;;;;;;;;29.10;35.40;;;28.17;38.38;100345.09;12249642;19;19918;-84
2023/07/23 15:49:47;;;;;;;;;;;29.10;35.40;;;28.39;38.38;100381.41;12246975;19;20406;-85
2023/07/23 15:53:49;;;;;;;;;;;29.10;36.30;;;28.39;37.93;100380.59;12245525;19;20301;-85
2023/07/23 15:57:51;;;;;;;;;;;29.10;35.50;;;28.35;38.41;100369.41;12241696;19;19923;-85
2023/07/23 16:01:52;;;;;;;;;;;29.00;34.70;;;28.35;38.24;100377.47;12246216;19;19947;-85
2023/07/23 16:05:54;;;;;;;;;;;29.00;36.00;;;28.31;38.52;100381.63;12243775;19;20295;-85
2023/07/23 16:09:55;;;;;;;;;;;29.00;35.70;;;28.28;38.18;100365.13;12243336;19;19915;-85
2023/07/23 16:13:57;;;;;;;;;;;28.90;33.30;;;27.91;37.95;100314.56;12240722;19;19919;-85
2023/07/23 16:17:58;;;;;;;;;;;28.90;35.60;;;28.16;37.97;100362.22;12242328;19;19947;-85
2023/07/23 16:22:00;;;;;;;;;;;28.90;34.90;;;27.85;38.13;100325.31;12243109;19;19923;-85
2023/07/23 16:26:01;;;;;;;;;;;28.80;35.40;;;28.06;38.02;100356.44;12242034;19;19910;-85
2023/07/23 16:30:05;;;;;;;;;;;28.60;36.00;;;28.06;37.94;100354.63;12241842;19;19919;-84
2023/07/23 16:34:07;;;;;;;;;;;28.80;36.50;;;28.10;38.12;100360.38;12244401;19;19959;-84
2023/07/23 16:38:14;;;;;;;;;;;28.80;36.60;;;28.13;37.99;100359.97;12242623;19;19994;-85
2023/07/23 16:42:17;;;;;;;;;;;28.60;35.30;;;28.10;37.90;100353.16;12244982;19;19930;-84
2023/07/23 16:46:21;;;;;;;;;;;28.80;36.00;;;27.89;38.15;100313.13;12245743;19;19907;-84
2023/07/23 16:50:23;;;;;;;;;;;28.80;36.60;;;27.79;38.04;100287.50;12242376;19;19919;-85
2023/07/23 16:54:24;;;;;;;;;;;28.80;36.50;;;27.92;37.90;100312.69;12245712;19;19961;-84
2023/07/23 16:58:27;;;;;;;;;;;28.90;36.30;;;28.20;37.56;100358.09;12243380;19;20332;-88
2023/07/23 17:02:29;;;;;;;;;;;28.80;36.60;;;28.18;37.91;100350.25;12252383;19;19915;-88
2023/07/23 17:06:31;;;;;;;;;;;28.90;36.70;;;28.13;38.08;100351.91;12247128;19;19918;-87
2023/07/23 17:10:32;;;;;;;;;;;28.80;36.60;;;27.98;37.99;100323.44;12247565;19;19914;-87
2023/07/23 17:14:35;;;;;;;;;;;28.80;36.40;;;28.05;38.01;100336.84;12260903;19;19988;-88
2023/07/23 17:18:36;;;;;;;;;;;28.70;36.80;;;28.08;37.91;100349.84;12262534;19;19952;-88
2023/07/23 17:22:37;;;;;;;;;;;28.80;37.00;;;28.06;38.29;100362.66;12254121;19;20351;-88
2023/07/23 17:26:39;;;;;;;;;;;28.70;37.00;;;28.00;37.89;100345.53;12254283;19;19930;-88
2023/07/23 17:30:40;;;;;;;;;;;28.70;37.00;;;27.89;37.92;100337.28;12266203;19;20016;-88
2023/07/23 17:34:42;;;;;;;;;;;28.70;36.90;;;27.87;37.85;100344.69;12267298;19;19946;-88
2023/07/23 17:38:43;;;;;;;;;;;28.70;37.00;;;27.88;37.66;100357.09;12269293;19;19922;-88
2023/07/23 17:42:47;;;;;;;;;;;28.60;37.00;;;27.80;38.01;100350.09;12267712;19;19923;-88
2023/07/23 17:46:48;;;;;;;;;;;28.50;36.90;;;27.74;37.93;100367.81;12265625;19;19919;-88
2023/07/23 17:50:49;;;;;;;;;;;28.40;36.70;;;27.70;37.98;100388.03;12268007;19;19922;-88
2023/07/23 17:54:51;;;;;;;;;;;28.40;37.00;;;27.50;38.01;100355.81;12262307;19;19938;-88
2023/07/23 17:58:53;;;;;;;;;;;28.30;37.20;;;27.56;37.95;100381.00;12263667;19;19915;-88
2023/07/23 18:02:54;;;;;;;;;;;28.30;37.20;;;27.52;38.01;100382.47;12260136;19;19922;-88
2023/07/23 18:06:58;;;;;;;;;;;28.20;37.30;;;27.46;38.06;100385.94;12259916;19;19907;-88
2023/07/23 18:11:03;;;;;;;;;;;28.10;37.20;;;27.41;38.21;100391.06;12260507;19;20373;-88